Terminal Aerodrome Forecast
Issued by NWS Shreveport, LA

Home | Current Version | Previous Version | Text Only | Print | Product List | Glossary On
Versions: 1 2 3 4 5 6 7 8 9 10 11 12 13 14 15 16 17 18
000
FTUS44 KSHV 281750
TAFLFK
TAF
KLFK 281750Z 2818/2918 12012KT P6SM SCT035 SCT090
     FM290000 13009KT P6SM SCT045 BKN090
     FM290600 12004KT P6SM BKN015
     FM290800 11004KT 3SM BR BKN008
     FM291500 15007KT P6SM VCSH BKN015 OVC025
     FM291700 17007KT P6SM BKN040 OVC050=

USA.gov is the U.S. government's official web portal to all federal, state and local government web resources and services.